sensor_id;sensor_type;location;lat;lon;timestamp;temperature;humidity
22224;DHT22;11281;52.194;21.006;2023-05-21T00:01:11;11.50;99.90
22224;DHT22;11281;52.194;21.006;2023-05-21T00:05:16;11.50;99.90
22224;DHT22;11281;52.194;21.006;2023-05-21T00:09:18;11.40;99.90
22224;DHT22;11281;52.194;21.006;2023-05-21T00:13:19;11.40;99.90
22224;DHT22;11281;52.194;21.006;2023-05-21T00:17:20;11.40;99.90
22224;DHT22;11281;52.194;21.006;2023-05-21T00:21:21;11.40;99.90
22224;DHT22;11281;52.194;21.006;2023-05-21T00:25:25;11.40;99.90
22224;DHT22;11281;52.194;21.006;2023-05-21T00:29:27;11.20;99.90
22224;DHT22;11281;52.194;21.006;2023-05-21T00:33:30;11.20;99.90
22224;DHT22;11281;52.194;21.006;2023-05-21T00:37:32;11.20;99.90
22224;DHT22;11281;52.194;21.006;2023-05-21T00:41:34;11.20;99.90
22224;DHT22;11281;52.194;21.006;2023-05-21T00:45:36;11.30;99.90
22224;DHT22;11281;52.194;21.006;2023-05-21T00:49:38;11.20;99.90
22224;DHT22;11281;52.194;21.006;2023-05-21T00:53:40;11.10;99.90
22224;DHT22;11281;52.194;21.006;2023-05-21T00:57:41;11.10;99.90
22224;DHT22;11281;52.194;21.006;2023-05-21T01:01:43;11.00;99.90
22224;DHT22;11281;52.194;21.006;2023-05-21T01:05:45;10.90;99.90
22224;DHT22;11281;52.194;21.006;2023-05-21T01:09:47;10.80;99.90
22224;DHT22;11281;52.194;21.006;2023-05-21T01:13:49;10.70;99.90
22224;DHT22;11281;52.194;21.006;2023-05-21T01:17:51;10.70;99.90
22224;DHT22;11281;52.194;21.006;2023-05-21T01:21:59;10.60;99.90
22224;DHT22;11281;52.194;21.006;2023-05-21T01:26:00;10.60;99.90
22224;DHT22;11281;52.194;21.006;2023-05-21T01:30:02;10.60;99.90
22224;DHT22;11281;52.194;21.006;2023-05-21T01:34:05;10.50;99.90
22224;DHT22;11281;52.194;21.006;2023-05-21T01:38:40;10.40;99.90
22224;DHT22;11281;52.194;21.006;2023-05-21T01:42:41;10.40;99.90
22224;DHT22;11281;52.194;21.006;2023-05-21T01:46:43;10.30;99.90
22224;DHT22;11281;52.194;21.006;2023-05-21T01:50:46;10.30;99.90
22224;DHT22;11281;52.194;21.006;2023-05-21T01:54:48;10.20;99.90
22224;DHT22;11281;52.194;21.006;2023-05-21T01:58:51;10.10;99.90
22224;DHT22;11281;52.194;21.006;2023-05-21T02:02:52;10.10;99.90
22224;DHT22;11281;52.194;21.006;2023-05-21T02:06:54;10.00;99.90
22224;DHT22;11281;52.194;21.006;2023-05-21T02:10:55;10.10;99.90
22224;DHT22;11281;52.194;21.006;2023-05-21T02:14:57;10.00;99.90
22224;DHT22;11281;52.194;21.006;2023-05-21T02:18:59;10.00;99.90
22224;DHT22;11281;52.194;21.006;2023-05-21T02:23:00;10.00;99.90
22224;DHT22;11281;52.194;21.006;2023-05-21T02:27:01;9.90;99.90
22224;DHT22;11281;52.194;21.006;2023-05-21T02:31:02;10.00;99.90
22224;DHT22;11281;52.194;21.006;2023-05-21T02:35:04;9.90;99.90
22224;DHT22;11281;52.194;21.006;2023-05-21T02:39:05;9.90;99.90
22224;DHT22;11281;52.194;21.006;2023-05-21T02:43:06;9.90;99.90
22224;DHT22;11281;52.194;21.006;2023-05-21T02:47:08;9.90;99.90
22224;DHT22;11281;52.194;21.006;2023-05-21T02:51:10;10.00;99.90
22224;DHT22;11281;52.194;21.006;2023-05-21T02:55:11;10.00;99.90
22224;DHT22;11281;52.194;21.006;2023-05-21T02:59:12;10.00;99.90
22224;DHT22;11281;52.194;21.006;2023-05-21T03:03:14;10.00;99.90
22224;DHT22;11281;52.194;21.006;2023-05-21T03:07:16;10.10;99.90
22224;DHT22;11281;52.194;21.006;2023-05-21T03:11:20;10.20;99.90
22224;DHT22;11281;52.194;21.006;2023-05-21T03:15:22;10.30;99.90
22224;DHT22;11281;52.194;21.006;2023-05-21T03:19:24;10.50;99.90
22224;DHT22;11281;52.194;21.006;2023-05-21T03:23:26;10.70;99.90
22224;DHT22;11281;52.194;21.006;2023-05-21T03:27:28;10.80;99.90
22224;DHT22;11281;52.194;21.006;2023-05-21T03:31:29;10.80;99.90
22224;DHT22;11281;52.194;21.006;2023-05-21T03:35:30;10.90;99.90
22224;DHT22;11281;52.194;21.006;2023-05-21T03:39:31;10.90;99.90
22224;DHT22;11281;52.194;21.006;2023-05-21T03:43:32;11.00;99.90
22224;DHT22;11281;52.194;21.006;2023-05-21T03:47:34;11.10;99.90
22224;DHT22;11281;52.194;21.006;2023-05-21T03:51:36;11.10;99.90
22224;DHT22;11281;52.194;21.006;2023-05-21T03:55:38;11.20;99.90
22224;DHT22;11281;52.194;21.006;2023-05-21T03:59:39;11.30;99.90
22224;DHT22;11281;52.194;21.006;2023-05-21T04:03:41;11.30;99.90
22224;DHT22;11281;52.194;21.006;2023-05-21T04:07:42;11.40;99.90
22224;DHT22;11281;52.194;21.006;2023-05-21T04:11:46;11.40;99.90
22224;DHT22;11281;52.194;21.006;2023-05-21T04:15:47;11.60;99.90
22224;DHT22;11281;52.194;21.006;2023-05-21T04:19:49;11.60;99.90
22224;DHT22;11281;52.194;21.006;2023-05-21T04:23:51;11.70;99.90
22224;DHT22;11281;52.194;21.006;2023-05-21T04:27:53;11.80;99.90
22224;DHT22;11281;52.194;21.006;2023-05-21T04:31:55;11.80;99.90
22224;DHT22;11281;52.194;21.006;2023-05-21T04:35:56;12.00;99.90
22224;DHT22;11281;52.194;21.006;2023-05-21T04:39:58;12.10;99.90
22224;DHT22;11281;52.194;21.006;2023-05-21T04:44:01;12.20;99.90
22224;DHT22;11281;52.194;21.006;2023-05-21T04:48:02;12.40;99.90
22224;DHT22;11281;52.194;21.006;2023-05-21T04:52:03;12.50;99.90
22224;DHT22;11281;52.194;21.006;2023-05-21T04:56:04;12.60;99.90
22224;DHT22;11281;52.194;21.006;2023-05-21T05:00:07;12.80;99.90
22224;DHT22;11281;52.194;21.006;2023-05-21T05:04:08;12.90;99.90
22224;DHT22;11281;52.194;21.006;2023-05-21T05:08:10;13.00;99.90
22224;DHT22;11281;52.194;21.006;2023-05-21T05:12:12;13.20;99.90
22224;DHT22;11281;52.194;21.006;2023-05-21T05:16:13;13.30;99.90
22224;DHT22;11281;52.194;21.006;2023-05-21T05:20:19;13.60;99.90
22224;DHT22;11281;52.194;21.006;2023-05-21T05:24:20;13.70;99.90
22224;DHT22;11281;52.194;21.006;2023-05-21T05:28:22;13.80;99.90
22224;DHT22;11281;52.194;21.006;2023-05-21T05:32:24;14.00;99.90
22224;DHT22;11281;52.194;21.006;2023-05-21T05:36:26;14.20;99.90
22224;DHT22;11281;52.194;21.006;2023-05-21T05:40:27;14.50;99.90
22224;DHT22;11281;52.194;21.006;2023-05-21T05:44:29;17.10;99.90
22224;DHT22;11281;52.194;21.006;2023-05-21T05:48:30;22.70;97.10
22224;DHT22;11281;52.194;21.006;2023-05-21T05:52:31;24.00;81.10
22224;DHT22;11281;52.194;21.006;2023-05-21T05:56:32;25.60;74.60
22224;DHT22;11281;52.194;21.006;2023-05-21T06:00:34;27.30;76.70
22224;DHT22;11281;52.194;21.006;2023-05-21T06:04:36;27.60;66.10
22224;DHT22;11281;52.194;21.006;2023-05-21T06:08:37;26.90;83.40
22224;DHT22;11281;52.194;21.006;2023-05-21T06:12:40;25.30;95.40
22224;DHT22;11281;52.194;21.006;2023-05-21T06:16:42;22.90;99.90
22224;DHT22;11281;52.194;21.006;2023-05-21T06:20:43;21.30;99.90
22224;DHT22;11281;52.194;21.006;2023-05-21T06:24:44;20.90;99.90
22224;DHT22;11281;52.194;21.006;2023-05-21T06:28:45;20.50;99.90
22224;DHT22;11281;52.194;21.006;2023-05-21T06:32:47;20.90;99.90
22224;DHT22;11281;52.194;21.006;2023-05-21T06:36:49;20.90;99.90
22224;DHT22;11281;52.194;21.006;2023-05-21T06:40:51;20.70;99.90
22224;DHT22;11281;52.194;21.006;2023-05-21T06:44:53;20.90;99.90
22224;DHT22;11281;52.194;21.006;2023-05-21T06:48:54;20.80;99.90
22224;DHT22;11281;52.194;21.006;2023-05-21T06:52:56;20.90;99.90
22224;DHT22;11281;52.194;21.006;2023-05-21T06:56:57;20.50;99.90
22224;DHT22;11281;52.194;21.006;2023-05-21T07:00:59;21.00;99.90
22224;DHT22;11281;52.194;21.006;2023-05-21T07:05:01;21.10;99.90
22224;DHT22;11281;52.194;21.006;2023-05-21T07:09:03;21.30;99.90
22224;DHT22;11281;52.194;21.006;2023-05-21T07:13:05;21.20;99.90
22224;DHT22;11281;52.194;21.006;2023-05-21T07:17:06;21.20;99.90
22224;DHT22;11281;52.194;21.006;2023-05-21T07:21:07;21.20;99.90
22224;DHT22;11281;52.194;21.006;2023-05-21T07:25:09;21.40;99.90
22224;DHT22;11281;52.194;21.006;2023-05-21T07:29:10;21.00;99.90
22224;DHT22;11281;52.194;21.006;2023-05-21T07:33:12;20.90;99.90
22224;DHT22;11281;52.194;21.006;2023-05-21T07:37:13;20.70;99.90
22224;DHT22;11281;52.194;21.006;2023-05-21T07:41:14;20.70;99.90
22224;DHT22;11281;52.194;21.006;2023-05-21T07:45:15;20.90;99.90
22224;DHT22;11281;52.194;21.006;2023-05-21T07:49:17;20.90;99.90
22224;DHT22;11281;52.194;21.006;2023-05-21T07:53:18;20.70;99.90
22224;DHT22;11281;52.194;21.006;2023-05-21T07:57:20;20.80;99.90
22224;DHT22;11281;52.194;21.006;2023-05-21T08:01:22;21.00;99.90
22224;DHT22;11281;52.194;21.006;2023-05-21T08:05:24;21.10;99.90
22224;DHT22;11281;52.194;21.006;2023-05-21T08:09:26;21.20;99.90
22224;DHT22;11281;52.194;21.006;2023-05-21T08:13:27;21.30;99.90
22224;DHT22;11281;52.194;21.006;2023-05-21T08:17:28;21.20;99.90
22224;DHT22;11281;52.194;21.006;2023-05-21T08:21:29;21.30;99.90
22224;DHT22;11281;52.194;21.006;2023-05-21T08:25:32;21.40;99.90
22224;DHT22;11281;52.194;21.006;2023-05-21T08:29:33;21.20;99.90
22224;DHT22;11281;52.194;21.006;2023-05-21T08:33:35;21.40;99.90
22224;DHT22;11281;52.194;21.006;2023-05-21T08:37:38;21.50;97.20
22224;DHT22;11281;52.194;21.006;2023-05-21T08:41:40;21.60;92.30
22224;DHT22;11281;52.194;21.006;2023-05-21T08:45:49;21.60;86.00
22224;DHT22;11281;52.194;21.006;2023-05-21T08:49:53;21.70;82.90
22224;DHT22;11281;52.194;21.006;2023-05-21T08:53:56;21.80;78.70
22224;DHT22;11281;52.194;21.006;2023-05-21T08:58:00;21.90;78.50
22224;DHT22;11281;52.194;21.006;2023-05-21T09:02:04;21.90;75.70
22224;DHT22;11281;52.194;21.006;2023-05-21T09:06:12;21.70;73.60
22224;DHT22;11281;52.194;21.006;2023-05-21T09:10:13;21.90;79.20
22224;DHT22;11281;52.194;21.006;2023-05-21T09:14:17;21.90;84.40
22224;DHT22;11281;52.194;21.006;2023-05-21T09:18:19;21.90;74.70
22224;DHT22;11281;52.194;21.006;2023-05-21T09:22:22;21.90;75.40
22224;DHT22;11281;52.194;21.006;2023-05-21T09:26:24;21.90;71.00
22224;DHT22;11281;52.194;21.006;2023-05-21T09:30:27;21.90;77.60
22224;DHT22;11281;52.194;21.006;2023-05-21T09:34:28;22.10;78.50
22224;DHT22;11281;52.194;21.006;2023-05-21T09:38:32;22.10;74.70
22224;DHT22;11281;52.194;21.006;2023-05-21T09:42:34;22.20;78.00
22224;DHT22;11281;52.194;21.006;2023-05-21T09:46:37;22.30;77.80
22224;DHT22;11281;52.194;21.006;2023-05-21T09:50:40;22.10;77.00
22224;DHT22;11281;52.194;21.006;2023-05-21T09:54:42;21.90;72.20
22224;DHT22;11281;52.194;21.006;2023-05-21T09:58:44;22.10;76.00
22224;DHT22;11281;52.194;21.006;2023-05-21T10:02:47;22.30;74.90
22224;DHT22;11281;52.194;21.006;2023-05-21T10:06:49;22.10;74.00
22224;DHT22;11281;52.194;21.006;2023-05-21T10:10:51;22.40;81.70
22224;DHT22;11281;52.194;21.006;2023-05-21T10:15:03;22.30;76.30
22224;DHT22;11281;52.194;21.006;2023-05-21T10:19:04;22.40;75.70
22224;DHT22;11281;52.194;21.006;2023-05-21T10:23:11;22.30;73.00
22224;DHT22;11281;52.194;21.006;2023-05-21T10:27:13;22.30;76.00
22224;DHT22;11281;52.194;21.006;2023-05-21T10:31:15;22.50;75.90
22224;DHT22;11281;52.194;21.006;2023-05-21T10:35:18;22.60;75.20
22224;DHT22;11281;52.194;21.006;2023-05-21T10:39:20;22.60;72.20
22224;DHT22;11281;52.194;21.006;2023-05-21T10:47:58;22.40;67.00
22224;DHT22;11281;52.194;21.006;2023-05-21T10:56:35;23.00;74.50
22224;DHT22;11281;52.194;21.006;2023-05-21T11:00:39;22.80;71.70
22224;DHT22;11281;52.194;21.006;2023-05-21T11:04:43;23.00;71.30
22224;DHT22;11281;52.194;21.006;2023-05-21T11:08:46;22.70;69.90
22224;DHT22;11281;52.194;21.006;2023-05-21T11:13:07;22.80;72.30
22224;DHT22;11281;52.194;21.006;2023-05-21T11:17:15;23.00;71.30
22224;DHT22;11281;52.194;21.006;2023-05-21T11:21:17;22.80;71.50
22224;DHT22;11281;52.194;21.006;2023-05-21T11:25:21;23.30;74.00
22224;DHT22;11281;52.194;21.006;2023-05-21T11:29:37;23.10;72.60
22224;DHT22;11281;52.194;21.006;2023-05-21T11:33:41;23.20;69.90
22224;DHT22;11281;52.194;21.006;2023-05-21T11:37:49;23.00;71.80
22224;DHT22;11281;52.194;21.006;2023-05-21T11:41:57;22.90;69.00
22224;DHT22;11281;52.194;21.006;2023-05-21T11:45:59;22.80;65.40
22224;DHT22;11281;52.194;21.006;2023-05-21T11:50:02;23.10;64.60
22224;DHT22;11281;52.194;21.006;2023-05-21T11:54:07;23.00;66.40
22224;DHT22;11281;52.194;21.006;2023-05-21T11:58:12;22.80;66.30
22224;DHT22;11281;52.194;21.006;2023-05-21T12:02:14;22.90;63.60
22224;DHT22;11281;52.194;21.006;2023-05-21T12:06:25;23.10;66.90
22224;DHT22;11281;52.194;21.006;2023-05-21T12:10:26;22.90;67.30
22224;DHT22;11281;52.194;21.006;2023-05-21T12:14:28;22.90;67.10
22224;DHT22;11281;52.194;21.006;2023-05-21T12:18:30;23.10;67.60
22224;DHT22;11281;52.194;21.006;2023-05-21T12:22:31;23.10;65.80
22224;DHT22;11281;52.194;21.006;2023-05-21T12:26:32;23.10;64.30
22224;DHT22;11281;52.194;21.006;2023-05-21T12:30:35;23.10;61.80
22224;DHT22;11281;52.194;21.006;2023-05-21T12:34:47;23.00;63.80
22224;DHT22;11281;52.194;21.006;2023-05-21T12:38:50;23.30;63.60
22224;DHT22;11281;52.194;21.006;2023-05-21T12:42:52;23.30;62.80
22224;DHT22;11281;52.194;21.006;2023-05-21T12:46:53;23.30;62.50
22224;DHT22;11281;52.194;21.006;2023-05-21T12:50:54;23.20;62.40
22224;DHT22;11281;52.194;21.006;2023-05-21T12:54:59;23.00;65.60
22224;DHT22;11281;52.194;21.006;2023-05-21T12:59:01;23.00;61.80
22224;DHT22;11281;52.194;21.006;2023-05-21T13:03:02;23.00;61.20
22224;DHT22;11281;52.194;21.006;2023-05-21T13:07:04;23.10;59.20
22224;DHT22;11281;52.194;21.006;2023-05-21T13:11:05;23.40;59.80
22224;DHT22;11281;52.194;21.006;2023-05-21T13:15:07;23.00;59.00
22224;DHT22;11281;52.194;21.006;2023-05-21T13:19:08;23.00;59.20
22224;DHT22;11281;52.194;21.006;2023-05-21T13:23:09;23.20;63.00
22224;DHT22;11281;52.194;21.006;2023-05-21T13:27:11;23.40;62.30
22224;DHT22;11281;52.194;21.006;2023-05-21T13:31:13;23.20;55.00
22224;DHT22;11281;52.194;21.006;2023-05-21T13:35:16;23.00;59.30
22224;DHT22;11281;52.194;21.006;2023-05-21T13:39:17;23.10;60.20
22224;DHT22;11281;52.194;21.006;2023-05-21T13:43:19;23.40;61.80
22224;DHT22;11281;52.194;21.006;2023-05-21T13:47:21;23.30;57.60
22224;DHT22;11281;52.194;21.006;2023-05-21T13:51:23;23.20;64.70
22224;DHT22;11281;52.194;21.006;2023-05-21T13:55:25;23.10;61.50
22224;DHT22;11281;52.194;21.006;2023-05-21T13:59:27;23.20;59.10
22224;DHT22;11281;52.194;21.006;2023-05-21T14:03:29;23.20;60.50
22224;DHT22;11281;52.194;21.006;2023-05-21T14:07:31;23.30;59.80
22224;DHT22;11281;52.194;21.006;2023-05-21T14:11:33;23.30;61.80
22224;DHT22;11281;52.194;21.006;2023-05-21T14:15:34;23.20;61.20
22224;DHT22;11281;52.194;21.006;2023-05-21T14:19:36;23.40;58.30
22224;DHT22;11281;52.194;21.006;2023-05-21T14:23:38;23.30;57.10
22224;DHT22;11281;52.194;21.006;2023-05-21T14:27:39;23.40;60.00
22224;DHT22;11281;52.194;21.006;2023-05-21T14:31:40;23.20;56.10
22224;DHT22;11281;52.194;21.006;2023-05-21T14:35:41;23.30;57.40
22224;DHT22;11281;52.194;21.006;2023-05-21T14:39:44;23.10;56.70
22224;DHT22;11281;52.194;21.006;2023-05-21T14:43:46;23.20;60.10
22224;DHT22;11281;52.194;21.006;2023-05-21T14:47:47;23.00;62.30
22224;DHT22;11281;52.194;21.006;2023-05-21T14:51:49;23.00;61.80
22224;DHT22;11281;52.194;21.006;2023-05-21T14:55:51;23.10;61.00
22224;DHT22;11281;52.194;21.006;2023-05-21T14:59:54;23.00;63.50
22224;DHT22;11281;52.194;21.006;2023-05-21T15:03:55;22.80;62.00
22224;DHT22;11281;52.194;21.006;2023-05-21T15:07:58;22.90;62.60
22224;DHT22;11281;52.194;21.006;2023-05-21T15:11:59;22.80;62.40
22224;DHT22;11281;52.194;21.006;2023-05-21T15:16:01;22.60;60.60
22224;DHT22;11281;52.194;21.006;2023-05-21T15:20:04;22.80;67.00
22224;DHT22;11281;52.194;21.006;2023-05-21T15:24:05;22.80;65.70
22224;DHT22;11281;52.194;21.006;2023-05-21T15:28:07;22.80;66.30
22224;DHT22;11281;52.194;21.006;2023-05-21T15:32:09;22.60;65.00
22224;DHT22;11281;52.194;21.006;2023-05-21T15:36:10;22.70;66.30
22224;DHT22;11281;52.194;21.006;2023-05-21T15:40:11;22.30;63.30
22224;DHT22;11281;52.194;21.006;2023-05-21T15:44:13;22.20;61.70
22224;DHT22;11281;52.194;21.006;2023-05-21T15:48:15;22.20;63.20
22224;DHT22;11281;52.194;21.006;2023-05-21T15:52:22;22.10;65.10
22224;DHT22;11281;52.194;21.006;2023-05-21T15:56:24;22.10;61.80
22224;DHT22;11281;52.194;21.006;2023-05-21T16:00:26;22.00;65.60
22224;DHT22;11281;52.194;21.006;2023-05-21T16:04:27;21.90;65.40
22224;DHT22;11281;52.194;21.006;2023-05-21T16:08:28;21.70;67.30
22224;DHT22;11281;52.194;21.006;2023-05-21T16:12:30;21.70;62.60
22224;DHT22;11281;52.194;21.006;2023-05-21T16:16:33;21.60;65.50
22224;DHT22;11281;52.194;21.006;2023-05-21T16:20:34;21.70;65.10
22224;DHT22;11281;52.194;21.006;2023-05-21T16:24:36;21.50;67.50
22224;DHT22;11281;52.194;21.006;2023-05-21T16:28:38;21.30;66.30
22224;DHT22;11281;52.194;21.006;2023-05-21T16:32:40;21.30;70.80
22224;DHT22;11281;52.194;21.006;2023-05-21T16:36:41;21.20;70.40
22224;DHT22;11281;52.194;21.006;2023-05-21T16:40:43;21.10;70.40
22224;DHT22;11281;52.194;21.006;2023-05-21T16:44:45;21.00;70.40
22224;DHT22;11281;52.194;21.006;2023-05-21T16:48:46;20.90;73.70
22224;DHT22;11281;52.194;21.006;2023-05-21T16:52:48;20.90;76.80
22224;DHT22;11281;52.194;21.006;2023-05-21T16:56:49;20.70;76.20
22224;DHT22;11281;52.194;21.006;2023-05-21T17:00:50;20.50;80.90
22224;DHT22;11281;52.194;21.006;2023-05-21T17:04:52;20.30;79.00
22224;DHT22;11281;52.194;21.006;2023-05-21T17:08:54;20.10;81.30
22224;DHT22;11281;52.194;21.006;2023-05-21T17:12:55;19.90;83.90
22224;DHT22;11281;52.194;21.006;2023-05-21T17:16:57;19.70;96.60
22224;DHT22;11281;52.194;21.006;2023-05-21T17:20:59;19.60;94.00
22224;DHT22;11281;52.194;21.006;2023-05-21T17:25:00;19.50;96.00
22224;DHT22;11281;52.194;21.006;2023-05-21T17:29:02;19.30;96.70
22224;DHT22;11281;52.194;21.006;2023-05-21T17:33:03;19.00;96.40
22224;DHT22;11281;52.194;21.006;2023-05-21T17:37:06;18.70;97.60
22224;DHT22;11281;52.194;21.006;2023-05-21T17:41:07;18.70;97.00
22224;DHT22;11281;52.194;21.006;2023-05-21T17:45:09;18.50;99.90
22224;DHT22;11281;52.194;21.006;2023-05-21T17:49:11;18.20;99.90
22224;DHT22;11281;52.194;21.006;2023-05-21T17:53:14;18.00;99.90
22224;DHT22;11281;52.194;21.006;2023-05-21T17:57:15;17.90;99.90
22224;DHT22;11281;52.194;21.006;2023-05-21T18:01:19;17.60;99.90
22224;DHT22;11281;52.194;21.006;2023-05-21T18:05:21;17.40;99.90
22224;DHT22;11281;52.194;21.006;2023-05-21T18:09:22;17.30;99.90
22224;DHT22;11281;52.194;21.006;2023-05-21T18:13:23;17.00;99.90
22224;DHT22;11281;52.194;21.006;2023-05-21T18:17:25;16.90;99.90
22224;DHT22;11281;52.194;21.006;2023-05-21T18:21:26;16.40;99.90
22224;DHT22;11281;52.194;21.006;2023-05-21T18:25:27;16.30;99.90
22224;DHT22;11281;52.194;21.006;2023-05-21T18:29:29;16.00;99.90
22224;DHT22;11281;52.194;21.006;2023-05-21T18:33:30;15.60;99.90
22224;DHT22;11281;52.194;21.006;2023-05-21T18:37:32;15.50;99.90
22224;DHT22;11281;52.194;21.006;2023-05-21T18:41:34;15.40;99.90
22224;DHT22;11281;52.194;21.006;2023-05-21T18:45:35;15.20;99.90
22224;DHT22;11281;52.194;21.006;2023-05-21T18:49:37;15.10;99.90
22224;DHT22;11281;52.194;21.006;2023-05-21T18:53:38;14.90;99.90
22224;DHT22;11281;52.194;21.006;2023-05-21T18:57:40;14.80;99.90
22224;DHT22;11281;52.194;21.006;2023-05-21T19:01:41;14.60;99.90
22224;DHT22;11281;52.194;21.006;2023-05-21T19:05:42;14.50;99.90
22224;DHT22;11281;52.194;21.006;2023-05-21T19:09:44;14.40;99.90
22224;DHT22;11281;52.194;21.006;2023-05-21T19:13:45;14.20;99.90
22224;DHT22;11281;52.194;21.006;2023-05-21T19:17:47;14.10;99.90
22224;DHT22;11281;52.194;21.006;2023-05-21T19:21:49;13.90;99.90
22224;DHT22;11281;52.194;21.006;2023-05-21T19:25:51;13.70;99.90
22224;DHT22;11281;52.194;21.006;2023-05-21T19:29:53;13.60;99.90
22224;DHT22;11281;52.194;21.006;2023-05-21T19:33:55;13.50;99.90
22224;DHT22;11281;52.194;21.006;2023-05-21T19:37:56;13.40;99.90
22224;DHT22;11281;52.194;21.006;2023-05-21T19:41:59;13.20;99.90
22224;DHT22;11281;52.194;21.006;2023-05-21T19:46:00;13.30;99.90
22224;DHT22;11281;52.194;21.006;2023-05-21T19:50:03;13.10;99.90
22224;DHT22;11281;52.194;21.006;2023-05-21T19:54:04;13.10;99.90
22224;DHT22;11281;52.194;21.006;2023-05-21T19:58:05;13.00;99.90
22224;DHT22;11281;52.194;21.006;2023-05-21T20:02:10;12.90;99.90
22224;DHT22;11281;52.194;21.006;2023-05-21T20:06:12;12.90;99.90
22224;DHT22;11281;52.194;21.006;2023-05-21T20:10:16;12.80;99.90
22224;DHT22;11281;52.194;21.006;2023-05-21T20:14:18;12.80;99.90
22224;DHT22;11281;52.194;21.006;2023-05-21T20:18:20;12.80;99.90
22224;DHT22;11281;52.194;21.006;2023-05-21T20:22:22;12.70;99.90
22224;DHT22;11281;52.194;21.006;2023-05-21T20:26:23;12.60;99.90
22224;DHT22;11281;52.194;21.006;2023-05-21T20:30:31;12.50;99.90
22224;DHT22;11281;52.194;21.006;2023-05-21T20:34:33;12.50;99.90
22224;DHT22;11281;52.194;21.006;2023-05-21T20:38:35;12.40;99.90
22224;DHT22;11281;52.194;21.006;2023-05-21T20:42:38;12.30;99.90
22224;DHT22;11281;52.194;21.006;2023-05-21T20:46:40;12.20;99.90
22224;DHT22;11281;52.194;21.006;2023-05-21T20:50:42;12.10;99.90
22224;DHT22;11281;52.194;21.006;2023-05-21T20:54:48;12.10;99.90
22224;DHT22;11281;52.194;21.006;2023-05-21T20:58:51;12.00;99.90
22224;DHT22;11281;52.194;21.006;2023-05-21T21:02:53;11.90;99.90
22224;DHT22;11281;52.194;21.006;2023-05-21T21:06:55;11.90;99.90
22224;DHT22;11281;52.194;21.006;2023-05-21T21:10:56;11.80;99.90
22224;DHT22;11281;52.194;21.006;2023-05-21T21:14:57;11.60;99.90
22224;DHT22;11281;52.194;21.006;2023-05-21T21:18:59;11.60;99.90
22224;DHT22;11281;52.194;21.006;2023-05-21T21:23:01;11.50;99.90
22224;DHT22;11281;52.194;21.006;2023-05-21T21:27:03;11.40;99.90
22224;DHT22;11281;52.194;21.006;2023-05-21T21:31:04;11.30;99.90
22224;DHT22;11281;52.194;21.006;2023-05-21T21:35:06;11.30;99.90
22224;DHT22;11281;52.194;21.006;2023-05-21T21:39:07;11.30;99.90
22224;DHT22;11281;52.194;21.006;2023-05-21T21:43:08;11.20;99.90
22224;DHT22;11281;52.194;21.006;2023-05-21T21:47:10;11.10;99.90
22224;DHT22;11281;52.194;21.006;2023-05-21T21:51:11;11.10;99.90
22224;DHT22;11281;52.194;21.006;2023-05-21T21:55:13;11.00;99.90
22224;DHT22;11281;52.194;21.006;2023-05-21T21:59:15;11.10;99.90
22224;DHT22;11281;52.194;21.006;2023-05-21T22:03:16;10.90;99.90
22224;DHT22;11281;52.194;21.006;2023-05-21T22:07:18;10.90;99.90
22224;DHT22;11281;52.194;21.006;2023-05-21T22:11:20;10.80;99.90
22224;DHT22;11281;52.194;21.006;2023-05-21T22:15:22;10.90;99.90
22224;DHT22;11281;52.194;21.006;2023-05-21T22:19:25;10.80;99.90
22224;DHT22;11281;52.194;21.006;2023-05-21T22:23:26;10.70;99.90
22224;DHT22;11281;52.194;21.006;2023-05-21T22:27:28;10.70;99.90
22224;DHT22;11281;52.194;21.006;2023-05-21T22:31:30;10.60;99.90
22224;DHT22;11281;52.194;21.006;2023-05-21T22:35:32;10.60;99.90
22224;DHT22;11281;52.194;21.006;2023-05-21T22:39:34;10.50;99.90
22224;DHT22;11281;52.194;21.006;2023-05-21T22:43:36;10.50;99.90
22224;DHT22;11281;52.194;21.006;2023-05-21T22:47:38;10.40;99.90
22224;DHT22;11281;52.194;21.006;2023-05-21T22:51:42;10.40;99.90
22224;DHT22;11281;52.194;21.006;2023-05-21T22:55:44;10.40;99.90
22224;DHT22;11281;52.194;21.006;2023-05-21T22:59:46;10.40;99.90
22224;DHT22;11281;52.194;21.006;2023-05-21T23:03:48;10.30;99.90
22224;DHT22;11281;52.194;21.006;2023-05-21T23:07:50;10.30;99.90
22224;DHT22;11281;52.194;21.006;2023-05-21T23:11:51;10.30;99.90
22224;DHT22;11281;52.194;21.006;2023-05-21T23:15:53;10.30;99.90
22224;DHT22;11281;52.194;21.006;2023-05-21T23:19:58;10.10;99.90
22224;DHT22;11281;52.194;21.006;2023-05-21T23:24:00;10.10;99.90
22224;DHT22;11281;52.194;21.006;2023-05-21T23:28:02;10.10;99.90
22224;DHT22;11281;52.194;21.006;2023-05-21T23:32:04;10.00;99.90
22224;DHT22;11281;52.194;21.006;2023-05-21T23:36:06;10.00;99.90
22224;DHT22;11281;52.194;21.006;2023-05-21T23:40:08;10.00;99.90
22224;DHT22;11281;52.194;21.006;2023-05-21T23:44:09;10.00;99.90
22224;DHT22;11281;52.194;21.006;2023-05-21T23:48:11;9.90;99.90
22224;DHT22;11281;52.194;21.006;2023-05-21T23:52:13;9.80;99.90
22224;DHT22;11281;52.194;21.006;2023-05-21T23:56:16;9.80;99.90
